createdAt,value
2019-03-23T00:01:10.035Z,40.83
2019-03-23T00:06:05.739Z,36.50
2019-03-23T00:11:10.948Z,35.47
2019-03-23T00:16:08.475Z,37.27
2019-03-23T00:21:08.983Z,39.50
2019-03-23T00:26:08.727Z,37.67
2019-03-23T00:31:08.295Z,37.73
2019-03-23T00:36:09.747Z,38.83
2019-03-23T00:41:13.317Z,35.07
2019-03-23T00:46:09.109Z,37.03
2019-03-23T00:51:07.188Z,34.27
2019-03-23T00:56:05.743Z,36.30
2019-03-23T01:01:11.518Z,33.40
2019-03-23T01:06:07.286Z,33.93
2019-03-23T01:11:05.614Z,33.43
2019-03-23T01:16:03.918Z,35.03
2019-03-23T01:21:05.651Z,34.00
2019-03-23T01:26:05.555Z,34.17
2019-03-23T01:31:07.317Z,34.50
2019-03-23T01:36:05.986Z,32.97
2019-03-23T01:41:05.095Z,35.33
2019-03-23T01:46:00.389Z,33.50
2019-03-23T01:51:15.141Z,32.87
2019-03-23T01:55:59.172Z,33.27
2019-03-23T02:00:53.369Z,32.60
2019-03-23T02:05:53.867Z,33.80
2019-03-23T02:10:48.876Z,33.07
2019-03-23T02:15:46.197Z,30.57
2019-03-23T02:20:44.065Z,30.90
2019-03-23T02:25:43.576Z,31.77
2019-03-23T02:30:41.634Z,30.33
2019-03-23T02:35:36.473Z,30.93
2019-03-23T02:40:33.335Z,28.60
2019-03-23T02:45:30.308Z,31.33
2019-03-23T02:50:26.082Z,31.73
2019-03-23T02:55:27.505Z,32.73
2019-03-23T03:00:27.395Z,32.37
2019-03-23T03:05:24.241Z,30.97
2019-03-23T03:10:41.581Z,30.17
2019-03-23T03:15:36.806Z,30.93
2019-03-23T03:20:31.728Z,31.30
2019-03-23T03:25:28.971Z,31.97
2019-03-23T03:30:24.476Z,33.70
2019-03-23T03:35:18.850Z,31.13
2019-03-23T03:40:18.212Z,30.67
2019-03-23T03:45:15.039Z,29.43
2019-03-23T03:50:10.970Z,30.17
2019-03-23T03:55:08.286Z,33.13
2019-03-23T04:00:07.230Z,30.00
2019-03-23T04:05:02.379Z,32.40
2019-03-23T04:09:57.470Z,32.43
2019-03-23T04:14:52.773Z,31.27
2019-03-23T04:19:47.141Z,29.70
2019-03-23T04:24:44.382Z,31.63
2019-03-23T04:29:39.890Z,33.53
2019-03-23T04:34:36.429Z,31.70
2019-03-23T04:39:35.563Z,31.37
2019-03-23T04:44:30.843Z,33.17
2019-03-23T04:49:26.771Z,33.10
2019-03-23T04:54:21.500Z,34.00
2019-03-23T04:59:16.346Z,34.03
2019-03-23T05:04:15.364Z,32.67
2019-03-23T05:09:10.883Z,31.47
2019-03-23T05:14:09.170Z,29.23
2019-03-23T05:19:04.247Z,28.33
2019-03-23T05:24:01.003Z,28.13
2019-03-23T05:28:56.340Z,29.50
2019-03-23T05:33:53.963Z,29.53
2019-03-23T05:38:52.626Z,30.37
2019-03-23T05:43:50.024Z,29.87
2019-03-23T05:48:44.196Z,29.60
2019-03-23T05:53:43.686Z,28.43
2019-03-23T05:58:46.980Z,26.43
2019-03-23T06:03:48.247Z,23.63
2019-03-23T06:08:41.847Z,21.80
2019-03-23T06:13:37.556Z,23.30
2019-03-23T06:18:32.661Z,21.03
2019-03-23T06:23:31.232Z,21.70
2019-03-23T06:28:26.701Z,22.97
2019-03-23T06:33:21.359Z,22.30
2019-03-23T06:38:19.938Z,22.90
2019-03-23T06:43:16.543Z,20.53
2019-03-23T06:48:13.633Z,22.07
2019-03-23T06:53:15.673Z,22.80
2019-03-23T06:58:11.220Z,22.83
2019-03-23T07:03:07.931Z,21.97
2019-03-23T07:08:05.987Z,21.70
2019-03-23T07:13:00.401Z,33.03
2019-03-23T07:18:01.946Z,20.17
2019-03-23T07:22:55.481Z,29.77
2019-03-23T07:27:49.857Z,23.07
2019-03-23T07:32:51.551Z,23.10
2019-03-23T07:37:47.636Z,27.17
2019-03-23T07:42:47.672Z,20.93
2019-03-23T07:47:48.558Z,19.37
2019-03-23T07:52:51.092Z,19.87
2019-03-23T07:57:45.459Z,26.37
2019-03-23T08:02:40.578Z,27.23
2019-03-23T08:07:36.863Z,22.93
2019-03-23T08:12:31.327Z,19.30
2019-03-23T08:17:30.856Z,22.27
2019-03-23T08:22:25.256Z,22.13
2019-03-23T08:27:20.413Z,19.37
2019-03-23T08:32:21.397Z,16.37
2019-03-23T08:37:15.078Z,17.77
2019-03-23T08:42:26.408Z,15.93
2019-03-23T08:47:21.632Z,20.17
2019-03-23T08:52:18.824Z,19.40
2019-03-23T08:57:13.797Z,14.93
2019-03-23T09:02:09.056Z,18.27
2019-03-23T09:07:10.213Z,15.87
2019-03-23T09:12:06.405Z,14.70
2019-03-23T09:17:08.041Z,15.27
2019-03-23T09:22:02.760Z,13.83
2019-03-23T09:26:58.086Z,11.07
2019-03-23T09:31:54.597Z,10.80
2019-03-23T09:36:49.894Z,9.65
2019-03-23T09:41:48.471Z,7.33
2019-03-23T09:46:44.443Z,8.90
2019-03-23T09:51:39.081Z,6.72
2019-03-23T09:56:38.392Z,7.97
2019-03-23T10:01:37.388Z,5.47
2019-03-23T10:06:35.208Z,5.00
2019-03-23T10:11:30.924Z,5.12
2019-03-23T10:16:27.355Z,5.28
2019-03-23T10:21:25.300Z,5.08
2019-03-23T10:26:23.147Z,4.22
2019-03-23T10:31:19.237Z,4.40
2019-03-23T10:36:16.768Z,4.55
2019-03-23T10:41:14.215Z,4.25
2019-03-23T10:46:09.216Z,4.65
2019-03-23T10:51:06.498Z,4.90
2019-03-23T10:56:04.736Z,4.95
2019-03-23T11:01:03.427Z,5.58
2019-03-23T11:06:00.164Z,6.05
2019-03-23T11:10:56.492Z,5.03
2019-03-23T11:15:52.092Z,7.58
2019-03-23T11:20:49.579Z,5.85
2019-03-23T11:25:44.624Z,5.80
2019-03-23T11:30:42.982Z,7.62
2019-03-23T11:35:42.230Z,6.85
2019-03-23T11:40:41.246Z,11.30
2019-03-23T11:45:47.882Z,9.00
2019-03-23T11:50:42.759Z,8.93
2019-03-23T11:55:38.065Z,11.57
2019-03-23T12:00:35.677Z,8.60
2019-03-23T12:05:31.703Z,11.33
2019-03-23T12:10:28.730Z,11.00
2019-03-23T12:15:34.024Z,9.97
2019-03-23T12:20:26.578Z,10.50
2019-03-23T12:25:23.604Z,12.30
2019-03-23T12:30:21.299Z,11.47
2019-03-23T12:35:17.235Z,10.07
2019-03-23T12:40:16.422Z,9.90
2019-03-23T12:45:12.414Z,9.87
2019-03-23T12:50:11.731Z,8.97
2019-03-23T12:55:11.056Z,8.57
2019-03-23T13:00:15.442Z,9.00
2019-03-23T13:05:12.439Z,9.40
2019-03-23T13:10:12.078Z,8.40
2019-03-23T13:15:09.352Z,9.47
2019-03-23T13:20:08.815Z,8.53
2019-03-23T13:25:08.929Z,9.37
2019-03-23T13:30:06.480Z,9.47
2019-03-23T13:35:14.101Z,10.40
2019-03-23T13:40:12.283Z,10.37
2019-03-23T13:45:09.402Z,8.90
2019-03-23T13:50:04.988Z,10.17
2019-03-23T13:55:04.357Z,10.93
2019-03-23T14:00:00.281Z,11.03
2019-03-23T14:04:55.592Z,10.57
2019-03-23T14:09:57.926Z,10.13
2019-03-23T14:14:51.913Z,11.27
2019-03-23T14:19:49.103Z,11.80
2019-03-23T14:24:51.695Z,10.60
2019-03-23T14:29:48.724Z,10.93
2019-03-23T14:34:47.266Z,12.33
2019-03-23T14:39:47.442Z,12.30
2019-03-23T14:44:43.873Z,10.53
2019-03-23T14:49:51.433Z,12.67
2019-03-23T14:54:48.889Z,12.27
2019-03-23T14:59:49.431Z,13.57
2019-03-23T15:04:51.505Z,12.50
2019-03-23T15:09:47.091Z,11.43
2019-03-23T15:14:47.073Z,12.40
2019-03-23T15:19:48.839Z,12.33
2019-03-23T15:24:44.653Z,12.70
2019-03-23T15:29:42.549Z,15.47
2019-03-23T15:34:40.824Z,14.70
2019-03-23T15:39:37.630Z,13.93
2019-03-23T15:44:40.287Z,12.10
2019-03-23T15:49:36.357Z,14.77
2019-03-23T15:54:33.932Z,16.23
2019-03-23T15:59:32.494Z,19.03
2019-03-23T16:04:34.488Z,20.97
2019-03-23T16:09:36.613Z,17.67
2019-03-23T16:14:49.137Z,18.17
2019-03-23T16:19:46.899Z,19.07
2019-03-23T16:24:43.725Z,20.23
2019-03-23T16:29:39.839Z,20.33
2019-03-23T16:34:40.133Z,26.17
2019-03-23T16:39:41.653Z,24.60
2019-03-23T16:44:38.358Z,24.93
2019-03-23T16:49:36.136Z,34.93
2019-03-23T16:54:34.625Z,27.03
2019-03-23T16:59:32.808Z,37.63
2019-03-23T17:04:31.764Z,48.47
2019-03-23T17:09:29.125Z,62.27
2019-03-23T17:14:24.411Z,57.77
2019-03-23T17:19:23.881Z,47.93
2019-03-23T17:24:22.061Z,47.20
2019-03-23T17:29:19.589Z,47.83
2019-03-23T17:34:20.326Z,47.37
2019-03-23T17:39:20.939Z,44.30
2019-03-23T17:44:22.755Z,47.73
2019-03-23T17:49:24.240Z,44.77
2019-03-23T17:54:25.987Z,45.70
2019-03-23T17:59:24.793Z,46.87
2019-03-23T18:04:20.981Z,42.63
2019-03-23T18:09:17.922Z,44.43
2019-03-23T18:14:15.237Z,42.77
2019-03-23T18:19:12.008Z,42.00
2019-03-23T18:24:07.869Z,41.43
2019-03-23T18:29:04.537Z,42.17
2019-03-23T18:34:03.436Z,40.17
2019-03-23T18:38:58.139Z,42.30
2019-03-23T18:43:56.404Z,40.87
2019-03-23T18:48:57.156Z,58.10
2019-03-23T18:53:53.254Z,38.50
2019-03-23T18:58:50.214Z,36.07
2019-03-23T19:03:46.504Z,36.07
2019-03-23T19:08:46.558Z,38.00
2019-03-23T19:13:47.609Z,38.57
2019-03-23T19:18:44.882Z,37.37
2019-03-23T19:23:41.107Z,35.10
2019-03-23T19:28:38.633Z,35.03
2019-03-23T19:33:43.642Z,47.30
2019-03-23T19:38:39.864Z,36.33
2019-03-23T19:43:47.989Z,35.80
2019-03-23T19:48:39.888Z,32.97
2019-03-23T19:53:40.633Z,41.80
2019-03-23T19:58:37.228Z,30.57
2019-03-23T20:03:35.601Z,30.93
2019-03-23T20:08:33.015Z,32.07
2019-03-23T20:13:34.618Z,31.00
2019-03-23T20:18:39.691Z,32.77
2019-03-23T20:23:35.079Z,31.67
2019-03-23T20:28:30.075Z,34.00
2019-03-23T20:33:28.693Z,35.13
2019-03-23T20:38:28.394Z,35.67
2019-03-23T20:43:25.139Z,36.00
2019-03-23T20:48:20.909Z,35.33
2019-03-23T20:53:18.597Z,34.00
2019-03-23T20:58:14.407Z,34.90
2019-03-23T21:03:13.307Z,34.37
2019-03-23T21:08:11.794Z,35.93
2019-03-23T21:13:07.172Z,36.47
2019-03-23T21:18:06.806Z,36.43
2019-03-23T21:23:03.826Z,38.03
2019-03-23T21:28:00.843Z,35.67
2019-03-23T21:32:59.741Z,39.40
2019-03-23T21:37:55.788Z,38.30
2019-03-23T21:42:58.655Z,36.97
2019-03-23T21:47:55.208Z,36.37
2019-03-23T21:52:53.117Z,34.43
2019-03-23T21:57:57.035Z,35.90
2019-03-23T22:02:58.341Z,34.27
2019-03-23T22:07:55.933Z,35.23
2019-03-23T22:12:55.138Z,35.93
2019-03-23T22:17:50.395Z,34.63
2019-03-23T22:23:12.981Z,33.90
2019-03-23T22:28:08.902Z,37.30
2019-03-23T22:33:04.884Z,37.30
2019-03-23T22:37:59.977Z,37.67
2019-03-23T22:42:58.093Z,35.37
2019-03-23T22:47:54.863Z,35.07
2019-03-23T22:52:50.854Z,37.97
2019-03-23T22:57:50.911Z,36.77
2019-03-23T23:02:48.414Z,36.47
2019-03-23T23:07:51.656Z,34.87
2019-03-23T23:12:48.528Z,36.07
2019-03-23T23:17:56.710Z,34.90
2019-03-23T23:22:47.574Z,36.07
2019-03-23T23:27:44.222Z,35.83
2019-03-23T23:32:39.467Z,35.80
2019-03-23T23:37:36.062Z,36.50
2019-03-23T23:42:34.122Z,36.73
2019-03-23T23:47:29.366Z,37.13
2019-03-23T23:52:26.126Z,37.37
2019-03-23T23:57:22.524Z,36.23
